Time;durP1;ratioP1;P1;durP2;ratioP2;P2;SDS_P1;SDS_P2;PMS_P1;PMS_P2;Temp;Humidity;BMP_temperature;BMP_pressure;BME280_temperature;BME280_humidity;BME280_pressure;Samples;Min_cycle;Max_cycle;Signal;HPM_P1;HPM_P2
2021/10/26 00:00:38;;;;;;;0.40;0.30;;;13.60;99.90;;;;;;5090744;28;20378;-72
2021/10/26 00:03:04;;;;;;;0.40;0.20;;;13.50;99.90;;;;;;5090185;28;20405;-73
2021/10/26 00:05:30;;;;;;;0.40;0.30;;;13.40;99.90;;;;;;5090223;28;20440;-72
2021/10/26 00:07:56;;;;;;;0.40;0.30;;;13.30;99.90;;;;;;5090349;28;20389;-71
2021/10/26 00:10:22;;;;;;;0.40;0.30;;;13.30;99.90;;;;;;5089887;28;20834;-71
2021/10/26 00:12:47;;;;;;;0.40;0.23;;;13.30;99.90;;;;;;5090281;28;20726;-71
2021/10/26 00:15:14;;;;;;;0.40;0.20;;;13.30;99.90;;;;;;5089798;28;20386;-72
2021/10/26 00:17:39;;;;;;;0.40;0.40;;;13.20;99.90;;;;;;5090304;28;20386;-71
2021/10/26 00:20:06;;;;;;;0.40;0.20;;;13.20;99.90;;;;;;5093199;28;20461;-73
2021/10/26 00:22:31;;;;;;;0.40;0.40;;;13.20;99.90;;;;;;5094165;28;20382;-72
2021/10/26 00:24:57;;;;;;;0.40;0.30;;;13.20;99.90;;;;;;5094123;28;20375;-71
2021/10/26 00:27:23;;;;;;;0.40;0.30;;;13.30;99.90;;;;;;5093601;28;20704;-72
2021/10/26 00:29:49;;;;;;;0.40;0.30;;;13.20;99.90;;;;;;5094017;28;20385;-71
2021/10/26 00:32:15;;;;;;;0.43;0.38;;;13.30;99.90;;;;;;5093456;28;20394;-72
2021/10/26 00:34:41;;;;;;;0.40;0.30;;;13.30;99.90;;;;;;5094002;28;20842;-71
2021/10/26 00:37:06;;;;;;;0.40;0.20;;;13.20;99.90;;;;;;5093347;28;20392;-73
2021/10/26 00:39:32;;;;;;;0.40;0.30;;;13.20;99.90;;;;;;5093565;28;20428;-71
2021/10/26 00:41:59;;;;;;;0.90;0.90;;;13.20;99.90;;;;;;5092606;28;20708;-71
2021/10/26 00:44:28;;;;;;;0.60;0.50;;;13.20;99.90;;;;;;5093007;28;20394;-71
2021/10/26 00:46:54;;;;;;;0.40;0.20;;;13.10;99.90;;;;;;5093659;28;20412;-72
2021/10/26 00:49:20;;;;;;;0.40;0.30;;;13.10;99.90;;;;;;5091806;28;20477;-71
2021/10/26 00:51:46;;;;;;;0.40;0.20;;;13.10;99.90;;;;;;5093575;28;20444;-71
2021/10/26 00:54:12;;;;;;;0.40;0.20;;;13.00;99.90;;;;;;5093115;28;20375;-71
2021/10/26 00:56:37;;;;;;;0.43;0.32;;;12.80;99.90;;;;;;5093938;28;20473;-72
2021/10/26 00:59:04;;;;;;;0.60;0.60;;;12.60;99.90;;;;;;5093845;28;20406;-71
2021/10/26 01:01:29;;;;;;;0.40;0.20;;;12.70;99.90;;;;;;5093064;28;20375;-71
2021/10/26 01:03:55;;;;;;;0.40;0.30;;;12.70;99.90;;;;;;5093453;28;20526;-71
2021/10/26 01:06:21;;;;;;;0.40;0.20;;;12.70;99.90;;;;;;5092752;28;20398;-71
2021/10/26 01:08:49;;;;;;;0.40;0.40;;;12.80;99.90;;;;;;5092100;28;20742;-72
2021/10/26 01:11:16;;;;;;;0.40;0.30;;;12.70;99.90;;;;;;5092541;28;20370;-72
2021/10/26 01:13:41;;;;;;;0.40;0.20;;;12.60;99.90;;;;;;5093327;28;20920;-71
2021/10/26 01:16:07;;;;;;;0.40;0.30;;;12.50;99.90;;;;;;5093061;28;20378;-71
2021/10/26 01:18:33;;;;;;;0.40;0.40;;;12.60;99.90;;;;;;5092891;28;20402;-72
2021/10/26 01:20:59;;;;;;;0.40;0.40;;;12.60;99.90;;;;;;5093255;28;20381;-72
2021/10/26 01:23:26;;;;;;;0.40;0.40;;;12.50;99.90;;;;;;5092399;28;20367;-72
2021/10/26 01:25:52;;;;;;;0.40;0.20;;;12.30;99.90;;;;;;5093220;28;20799;-71
2021/10/26 01:28:19;;;;;;;0.40;0.30;;;12.30;99.90;;;;;;5092505;28;20381;-71
2021/10/26 01:30:45;;;;;;;0.40;0.20;;;12.20;99.90;;;;;;5091851;28;20406;-71
2021/10/26 01:33:11;;;;;;;0.40;0.20;;;12.00;99.90;;;;;;5092705;28;20382;-72
2021/10/26 01:35:37;;;;;;;0.40;0.30;;;11.90;99.90;;;;;;5092886;28;20386;-72
2021/10/26 01:38:04;;;;;;;0.47;0.43;;;11.90;99.90;;;;;;5093002;28;20382;-71
2021/10/26 01:40:30;;;;;;;0.40;0.28;;;11.90;99.90;;;;;;5090915;28;20640;-72
2021/10/26 01:42:56;;;;;;;0.40;0.30;;;11.70;99.90;;;;;;5091303;28;20401;-71
2021/10/26 01:45:21;;;;;;;0.40;0.30;;;11.70;99.90;;;;;;5091579;28;20414;-72
2021/10/26 01:47:47;;;;;;;0.40;0.30;;;11.80;99.90;;;;;;5092984;28;20401;-72
2021/10/26 01:50:16;;;;;;;0.40;0.20;;;11.80;99.90;;;;;;5091987;28;20370;-73
2021/10/26 01:52:42;;;;;;;0.40;0.20;;;11.70;99.90;;;;;;5092605;28;20494;-72
2021/10/26 01:55:09;;;;;;;14.00;1.30;;;11.80;99.90;;;;;;5092486;28;20382;-72
2021/10/26 01:57:35;;;;;;;0.40;0.30;;;11.80;99.90;;;;;;5091655;28;20408;-71
2021/10/26 02:00:05;;;;;;;0.40;0.30;;;11.90;99.90;;;;;;5092109;28;20367;-71
2021/10/26 02:02:31;;;;;;;0.40;0.20;;;11.80;99.90;;;;;;5091901;28;20720;-72
2021/10/26 02:04:56;;;;;;;0.65;0.57;;;11.80;99.90;;;;;;5092283;28;20404;-71
2021/10/26 02:07:22;;;;;;;0.40;0.30;;;11.80;99.90;;;;;;5091618;28;20464;-72
2021/10/26 02:09:47;;;;;;;0.50;0.50;;;11.70;99.90;;;;;;5092150;28;20427;-71
2021/10/26 02:12:14;;;;;;;0.40;0.20;;;11.70;99.90;;;;;;5091766;28;20378;-72
2021/10/26 02:14:39;;;;;;;0.40;0.20;;;11.70;99.90;;;;;;5092090;28;20472;-71
2021/10/26 02:17:05;;;;;;;0.40;0.20;;;11.70;99.90;;;;;;5092165;28;20799;-71
2021/10/26 02:19:31;;;;;;;0.40;0.40;;;11.50;99.90;;;;;;5091398;28;20719;-71
2021/10/26 02:21:57;;;;;;;0.40;0.30;;;11.40;99.90;;;;;;5092243;28;20526;-72
2021/10/26 02:24:23;;;;;;;0.60;0.50;;;11.30;99.90;;;;;;5091008;28;20378;-71
2021/10/26 02:26:49;;;;;;;0.50;0.40;;;11.30;99.90;;;;;;5091706;28;20402;-71
2021/10/26 02:29:15;;;;;;;0.40;0.40;;;11.10;99.90;;;;;;5091253;28;20449;-72
2021/10/26 02:31:41;;;;;;;0.40;0.20;;;11.00;99.90;;;;;;5091732;28;20475;-71
2021/10/26 02:34:07;;;;;;;0.40;0.30;;;11.00;99.90;;;;;;5092041;28;20488;-72
2021/10/26 02:36:34;;;;;;;0.40;0.30;;;10.90;99.90;;;;;;5090928;28;20611;-72
2021/10/26 02:39:00;;;;;;;0.40;0.40;;;10.80;99.90;;;;;;5091839;28;20366;-71
2021/10/26 02:41:26;;;;;;;0.40;0.20;;;10.80;99.90;;;;;;5090659;28;20374;-71
2021/10/26 02:43:51;;;;;;;0.40;0.20;;;10.80;99.90;;;;;;5091558;28;20386;-73
2021/10/26 02:46:17;;;;;;;0.40;0.30;;;10.80;99.90;;;;;;5090592;28;20406;-73
2021/10/26 02:48:43;;;;;;;0.40;0.20;;;10.70;99.90;;;;;;5091077;28;20418;-71
2021/10/26 02:51:10;;;;;;;0.40;0.20;;;10.70;99.90;;;;;;5090844;28;20418;-71
2021/10/26 02:53:36;;;;;;;0.50;0.50;;;10.60;99.90;;;;;;5089957;28;20429;-71
2021/10/26 02:56:02;;;;;;;0.40;0.20;;;10.60;99.90;;;;;;5089666;28;20390;-72
2021/10/26 02:58:27;;;;;;;0.70;0.70;;;10.60;99.90;;;;;;5090389;28;20477;-71
2021/10/26 03:00:53;;;;;;;3.30;0.60;;;10.70;99.90;;;;;;5091018;28;20377;-72
2021/10/26 03:03:19;;;;;;;0.40;0.20;;;10.70;99.90;;;;;;5090677;28;20391;-72
2021/10/26 03:05:44;;;;;;;0.40;0.20;;;10.70;99.90;;;;;;5090882;28;20751;-72
2021/10/26 03:08:10;;;;;;;0.40;0.20;;;10.80;99.90;;;;;;5091295;28;20394;-71
2021/10/26 03:10:37;;;;;;;0.40;0.20;;;10.70;99.90;;;;;;5090574;28;20409;-71
2021/10/26 03:13:03;;;;;;;0.40;0.30;;;10.70;99.90;;;;;;5091320;28;20720;-71
2021/10/26 03:15:30;;;;;;;0.40;0.40;;;10.80;99.90;;;;;;5072366;28;20390;-72
2021/10/26 03:17:56;;;;;;;0.40;0.20;;;10.70;99.90;;;;;;5091035;28;20382;-71
2021/10/26 03:20:22;;;;;;;0.50;0.50;;;10.70;99.90;;;;;;5088818;28;20377;-72
2021/10/26 03:22:48;;;;;;;1.17;1.08;;;10.60;99.90;;;;;;5090501;28;20943;-72
2021/10/26 03:25:14;;;;;;;0.40;0.20;;;10.70;99.90;;;;;;5090663;28;20503;-71
2021/10/26 03:27:39;;;;;;;0.40;0.20;;;10.60;99.90;;;;;;5090230;28;20461;-72
2021/10/26 03:30:07;;;;;;;0.40;0.20;;;10.50;99.90;;;;;;5090730;28;20471;-72
2021/10/26 03:32:32;;;;;;;0.40;0.40;;;10.60;99.90;;;;;;5089855;28;20382;-71
2021/10/26 03:34:58;;;;;;;0.40;0.20;;;10.60;99.90;;;;;;5089352;28;20725;-71
2021/10/26 03:37:24;;;;;;;0.40;0.20;;;10.60;99.90;;;;;;5090127;28;20389;-72
2021/10/26 03:39:55;;;;;;;0.40;0.30;;;10.60;99.90;;;;;;5089049;28;20390;-71
2021/10/26 03:42:24;;;;;;;0.50;0.43;;;10.50;99.90;;;;;;5088629;28;20455;-71
2021/10/26 03:44:50;;;;;;;0.60;0.60;;;10.60;99.90;;;;;;5089026;28;20421;-72
2021/10/26 03:47:17;;;;;;;0.40;0.40;;;10.60;99.90;;;;;;5089020;28;20828;-71
2021/10/26 03:49:43;;;;;;;0.43;0.40;;;10.60;99.90;;;;;;5089965;28;20382;-72
2021/10/26 03:52:09;;;;;;;0.45;0.45;;;10.50;99.90;;;;;;5090223;28;20750;-71
2021/10/26 03:54:35;;;;;;;0.40;0.20;;;10.50;99.90;;;;;;5092085;28;20382;-71
2021/10/26 03:57:01;;;;;;;0.40;0.28;;;10.50;99.90;;;;;;5094560;28;20421;-72
2021/10/26 03:59:30;;;;;;;0.40;0.30;;;10.60;99.90;;;;;;5092438;28;20426;-72
2021/10/26 04:02:03;;;;;;;0.40;0.30;;;10.70;99.90;;;;;;5094599;28;20381;-71
2021/10/26 04:04:29;;;;;;;0.40;0.20;;;10.70;99.90;;;;;;5092750;28;20896;-72
2021/10/26 04:06:54;;;;;;;0.90;0.90;;;10.70;99.90;;;;;;5092932;28;20405;-71
2021/10/26 04:09:31;;;;;;;0.70;0.50;;;10.60;99.90;;;;;;5094641;28;20382;-73
2021/10/26 04:12:18;;;;;;;0.40;0.20;;;10.60;99.90;;;;;;5094572;28;20456;-71
2021/10/26 04:14:43;;;;;;;2.60;0.60;;;10.70;99.90;;;;;;5093376;28;20404;-71
2021/10/26 04:17:09;;;;;;;0.40;0.27;;;10.70;99.90;;;;;;5094118;28;20746;-71
2021/10/26 04:19:34;;;;;;;0.40;0.20;;;10.70;99.90;;;;;;5093606;28;20374;-71
2021/10/26 04:22:00;;;;;;;0.40;0.20;;;10.60;99.90;;;;;;5094226;28;20442;-72
2021/10/26 04:24:26;;;;;;;1.40;0.90;;;10.50;99.90;;;;;;5093279;28;20438;-72
2021/10/26 04:26:52;;;;;;;1.70;0.80;;;10.60;99.90;;;;;;5093643;28;20421;-72
2021/10/26 04:29:17;;;;;;;0.40;0.30;;;10.40;99.90;;;;;;5094302;28;20431;-71
2021/10/26 04:31:43;;;;;;;0.60;0.60;;;10.50;99.90;;;;;;5091972;28;20389;-71
2021/10/26 04:34:08;;;;;;;0.40;0.20;;;10.30;99.90;;;;;;5092892;28;20472;-72
2021/10/26 04:36:34;;;;;;;1.40;0.57;;;10.30;99.90;;;;;;5093218;28;20400;-72
2021/10/26 04:39:00;;;;;;;1.00;1.00;;;10.30;99.90;;;;;;5094131;28;20378;-71
2021/10/26 04:41:26;;;;;;;0.40;0.30;;;10.30;99.90;;;;;;5093346;28;20381;-71
2021/10/26 04:43:52;;;;;;;0.40;0.30;;;10.10;99.90;;;;;;5092494;28;20388;-71
2021/10/26 04:46:17;;;;;;;0.70;0.60;;;10.10;99.90;;;;;;5092637;28;20422;-72
2021/10/26 04:48:43;;;;;;;0.40;0.27;;;10.10;99.90;;;;;;5092865;28;20381;-72
2021/10/26 04:51:09;;;;;;;0.40;0.20;;;10.00;99.90;;;;;;5093313;28;20388;-71
2021/10/26 04:53:34;;;;;;;0.40;0.20;;;10.00;99.90;;;;;;5093131;28;20394;-71
2021/10/26 04:56:00;;;;;;;0.40;0.20;;;10.10;99.90;;;;;;5093010;28;20414;-71
2021/10/26 04:58:26;;;;;;;0.40;0.20;;;10.10;99.90;;;;;;5093204;28;20381;-73
2021/10/26 05:00:52;;;;;;;0.70;0.50;;;10.20;99.90;;;;;;5090915;28;20390;-72
2021/10/26 05:03:17;;;;;;;0.40;0.20;;;10.20;99.90;;;;;;5092590;28;20381;-71
2021/10/26 05:05:43;;;;;;;0.50;0.50;;;10.20;99.90;;;;;;5091472;28;20473;-71
2021/10/26 05:08:09;;;;;;;0.52;0.45;;;10.10;99.90;;;;;;5093319;28;20893;-72
2021/10/26 05:10:35;;;;;;;0.50;0.50;;;10.20;99.90;;;;;;5092140;28;20738;-72
2021/10/26 05:13:01;;;;;;;0.50;0.50;;;10.30;99.90;;;;;;5088643;28;20407;-72
2021/10/26 05:15:27;;;;;;;0.40;0.32;;;10.30;99.90;;;;;;5090763;28;20472;-73
2021/10/26 05:17:53;;;;;;;0.40;0.35;;;10.30;99.90;;;;;;5102935;28;20887;-72
2021/10/26 05:20:20;;;;;;;0.40;0.30;;;10.30;99.90;;;;;;5099396;28;20420;-72
2021/10/26 05:22:49;;;;;;;0.45;0.35;;;10.30;99.90;;;;;;5102765;28;20387;-71
2021/10/26 05:25:15;;;;;;;0.40;0.30;;;10.30;99.90;;;;;;5113395;28;20473;-72
2021/10/26 05:27:42;;;;;;;0.40;0.20;;;10.30;99.90;;;;;;5097044;28;20513;-72
2021/10/26 05:30:08;;;;;;;0.45;0.45;;;10.20;99.90;;;;;;5092231;28;20390;-72
2021/10/26 05:32:34;;;;;;;0.40;0.20;;;10.30;99.90;;;;;;5087558;28;20378;-71
2021/10/26 05:35:00;;;;;;;0.40;0.40;;;10.30;99.90;;;;;;5078627;28;20379;-72
2021/10/26 05:37:26;;;;;;;0.40;0.20;;;10.20;99.90;;;;;;5094220;28;20835;-72
2021/10/26 05:39:52;;;;;;;0.40;0.20;;;10.20;99.90;;;;;;5105554;28;20485;-72
2021/10/26 05:42:17;;;;;;;0.40;0.20;;;10.10;99.90;;;;;;5099633;28;20443;-72
2021/10/26 05:44:43;;;;;;;0.40;0.20;;;10.10;99.90;;;;;;5110077;28;20521;-72
2021/10/26 05:47:09;;;;;;;0.40;0.20;;;10.10;99.90;;;;;;5098609;28;20487;-72
2021/10/26 05:49:35;;;;;;;0.90;0.50;;;10.00;99.90;;;;;;5102695;28;20790;-72
2021/10/26 05:52:01;;;;;;;0.40;0.20;;;10.00;99.90;;;;;;5095391;28;20420;-72
2021/10/26 05:54:26;;;;;;;0.40;0.20;;;10.00;99.90;;;;;;5094343;28;20776;-72
2021/10/26 05:56:52;;;;;;;0.40;0.30;;;10.00;99.90;;;;;;5105970;28;20386;-72
2021/10/26 05:59:18;;;;;;;0.40;0.20;;;10.00;99.90;;;;;;5096912;28;20386;-72
2021/10/26 06:01:43;;;;;;;0.40;0.20;;;10.00;99.90;;;;;;5105569;28;20387;-72
2021/10/26 06:04:09;;;;;;;0.40;0.20;;;10.00;99.90;;;;;;5094676;28;20414;-72
2021/10/26 06:06:36;;;;;;;0.50;0.50;;;9.90;99.90;;;;;;5098523;28;20937;-72
2021/10/26 06:09:02;;;;;;;0.40;0.20;;;9.80;99.90;;;;;;5107283;28;20476;-72
2021/10/26 06:11:29;;;;;;;0.40;0.40;;;9.80;99.90;;;;;;5091301;28;20822;-71
2021/10/26 06:14:04;;;;;;;0.40;0.20;;;9.90;99.90;;;;;;5081522;28;20457;-71
2021/10/26 06:16:32;;;;;;;0.47;0.47;;;9.90;99.90;;;;;;5102289;28;20396;-72
2021/10/26 06:18:59;;;;;;;0.60;0.60;;;10.00;99.90;;;;;;5093266;28;20376;-73
2021/10/26 06:21:25;;;;;;;0.40;0.20;;;10.10;99.90;;;;;;5103740;27;20380;-73
2021/10/26 06:23:52;;;;;;;0.60;0.45;;;10.20;99.90;;;;;;5095711;28;20447;-71
2021/10/26 06:26:18;;;;;;;0.90;0.70;;;10.20;99.90;;;;;;5099613;28;20483;-71
2021/10/26 06:28:44;;;;;;;1.50;1.40;;;10.30;99.90;;;;;;5098385;28;20473;-71
2021/10/26 06:31:10;;;;;;;0.50;0.50;;;10.40;99.90;;;;;;5108041;28;20848;-71
2021/10/26 06:33:36;;;;;;;0.40;0.30;;;10.40;99.90;;;;;;5094374;28;20779;-71
2021/10/26 06:36:01;;;;;;;0.40;0.30;;;10.50;99.90;;;;;;5104919;28;20874;-70
2021/10/26 06:38:27;;;;;;;2.50;1.00;;;10.40;99.90;;;;;;5101681;28;20422;-72
2021/10/26 06:40:53;;;;;;;0.40;0.32;;;10.50;99.90;;;;;;5097271;28;20397;-71
2021/10/26 06:43:19;;;;;;;0.40;0.20;;;10.60;99.90;;;;;;5107886;28;20389;-71
2021/10/26 06:45:45;;;;;;;0.40;0.30;;;10.60;99.90;;;;;;5094912;28;20412;-71
2021/10/26 06:48:10;;;;;;;0.40;0.20;;;10.70;99.90;;;;;;5102129;28;20750;-71
2021/10/26 06:50:36;;;;;;;0.40;0.30;;;10.80;99.90;;;;;;5096323;28;20399;-70
2021/10/26 06:53:02;;;;;;;0.40;0.40;;;10.80;99.90;;;;;;5100992;28;20958;-70
2021/10/26 06:55:28;;;;;;;0.60;0.50;;;10.80;99.90;;;;;;5100652;28;20756;-72
2021/10/26 06:57:54;;;;;;;0.40;0.20;;;10.70;99.90;;;;;;5092802;28;20426;-70
2021/10/26 07:00:20;;;;;;;0.50;0.50;;;10.80;99.90;;;;;;5105317;28;20484;-70
2021/10/26 07:02:53;;;;;;;0.40;0.30;;;10.80;99.90;;;;;;5091945;28;20474;-70
2021/10/26 07:05:22;;;;;;;0.40;0.30;;;10.90;99.90;;;;;;5083912;28;20387;-70
2021/10/26 07:07:49;;;;;;;0.40;0.30;;;10.90;99.90;;;;;;5086895;28;20388;-71
2021/10/26 07:10:15;;;;;;;0.40;0.30;;;10.90;99.90;;;;;;5091029;28;20428;-71
2021/10/26 07:12:41;;;;;;;0.40;0.40;;;10.80;99.90;;;;;;5089554;28;20382;-70
2021/10/26 07:15:09;;;;;;;0.40;0.20;;;10.90;99.90;;;;;;5090166;28;20456;-72
2021/10/26 07:17:36;;;;;;;0.40;0.20;;;10.90;99.90;;;;;;5090840;28;20461;-70
2021/10/26 07:20:05;;;;;;;0.40;0.20;;;10.90;99.90;;;;;;5090544;28;20386;-70
2021/10/26 07:22:30;;;;;;;0.40;0.30;;;10.90;99.90;;;;;;5090748;28;20505;-70
2021/10/26 07:24:57;;;;;;;2.80;0.70;;;10.80;99.90;;;;;;5091480;28;20878;-70
2021/10/26 07:27:24;;;;;;;0.40;0.22;;;10.90;99.90;;;;;;5091307;28;20410;-73
2021/10/26 07:29:50;;;;;;;0.40;0.30;;;10.90;99.90;;;;;;5090784;28;20418;-70
2021/10/26 07:32:16;;;;;;;0.50;0.40;;;11.10;99.90;;;;;;5091317;28;20371;-70
2021/10/26 07:34:42;;;;;;;0.40;0.30;;;11.20;99.90;;;;;;5090539;28;20378;-70
2021/10/26 07:37:08;;;;;;;0.40;0.20;;;11.30;99.90;;;;;;5091436;28;20435;-70
2021/10/26 07:39:35;;;;;;;0.40;0.20;;;11.20;99.90;;;;;;5090686;28;20846;-70
2021/10/26 07:42:02;;;;;;;0.40;0.30;;;11.30;99.90;;;;;;5091252;28;20378;-70
2021/10/26 07:44:29;;;;;;;0.40;0.22;;;11.30;99.90;;;;;;5090714;28;20495;-70
2021/10/26 07:46:59;;;;;;;0.40;0.30;;;11.30;99.90;;;;;;5091093;28;20413;-70
2021/10/26 07:49:26;;;;;;;0.50;0.40;;;11.30;99.90;;;;;;5091290;28;20386;-70
2021/10/26 07:51:51;;;;;;;0.40;0.30;;;11.50;99.90;;;;;;5090506;28;20398;-71
2021/10/26 07:54:17;;;;;;;1.00;0.90;;;11.60;99.90;;;;;;5090859;28;20396;-71
2021/10/26 07:56:43;;;;;;;0.70;0.50;;;11.70;99.90;;;;;;5090071;28;20435;-70
2021/10/26 07:59:09;;;;;;;0.40;0.20;;;11.90;99.90;;;;;;5090961;28;20390;-70
2021/10/26 08:01:34;;;;;;;0.40;0.40;;;11.90;99.90;;;;;;5090145;28;20448;-70
2021/10/26 08:04:00;;;;;;;0.70;0.60;;;12.00;99.90;;;;;;5090912;28;20382;-71
2021/10/26 08:06:26;;;;;;;0.40;0.20;;;12.20;99.90;;;;;;5091003;28;20862;-70
2021/10/26 08:08:52;;;;;;;0.40;0.20;;;12.30;99.90;;;;;;5090336;28;20374;-70
2021/10/26 08:11:18;;;;;;;0.47;0.40;;;12.30;99.90;;;;;;5090940;28;20374;-70
2021/10/26 08:13:45;;;;;;;0.40;0.20;;;12.30;99.90;;;;;;5090267;28;20855;-70
2021/10/26 08:16:11;;;;;;;0.40;0.40;;;12.40;99.90;;;;;;5090933;28;20435;-70
2021/10/26 08:18:37;;;;;;;0.40;0.30;;;12.40;99.90;;;;;;5090535;28;20723;-70
2021/10/26 08:21:02;;;;;;;0.40;0.30;;;12.50;99.90;;;;;;5089547;28;20902;-70
2021/10/26 08:23:28;;;;;;;0.40;0.22;;;12.60;99.90;;;;;;5090835;28;20381;-70
2021/10/26 08:25:57;;;;;;;0.80;0.80;;;12.50;99.90;;;;;;5090204;28;20881;-70
2021/10/26 08:28:24;;;;;;;0.40;0.20;;;12.60;99.90;;;;;;5090745;28;20382;-70
2021/10/26 08:31:04;;;;;;;0.40;0.30;;;12.60;99.90;;;;;;5090345;28;20382;-70
2021/10/26 08:35:58;;;;;;;0.40;0.30;;;12.80;99.90;;;;;;5090727;28;20417;-70
2021/10/26 08:38:25;;;;;;;0.40;0.30;;;12.80;99.90;;;;;;5090629;28;20427;-70
2021/10/26 08:40:51;;;;;;;0.40;0.30;;;12.90;99.90;;;;;;5092751;28;20424;-70
2021/10/26 08:43:22;;;;;;;0.40;0.30;;;12.90;99.90;;;;;;5092905;28;20406;-70
2021/10/26 08:45:49;;;;;;;0.40;0.30;;;13.00;99.90;;;;;;5092506;28;20401;-70
2021/10/26 08:48:23;;;;;;;0.40;0.30;;;13.20;99.90;;;;;;5094216;28;20374;-70
2021/10/26 08:50:51;;;;;;;0.40;0.30;;;13.30;99.90;;;;;;5093790;28;20374;-70
2021/10/26 08:53:18;;;;;;;0.40;0.30;;;13.40;99.90;;;;;;5093834;28;20391;-70
2021/10/26 08:55:55;;;;;;;0.40;0.20;;;13.50;99.90;;;;;;5093567;28;20854;-70
2021/10/26 08:58:30;;;;;;;0.40;0.20;;;13.70;99.90;;;;;;5093194;28;20533;-70
2021/10/26 09:01:00;;;;;;;0.40;0.20;;;13.80;99.90;;;;;;5093603;28;20495;-70
2021/10/26 09:03:32;;;;;;;0.40;0.20;;;13.80;99.90;;;;;;5093978;28;20384;-71
2021/10/26 09:05:58;;;;;;;0.40;0.20;;;14.10;99.90;;;;;;5093396;28;20409;-69
2021/10/26 09:08:26;;;;;;;0.40;0.30;;;14.40;99.90;;;;;;5094216;28;20382;-69
2021/10/26 09:10:54;;;;;;;0.40;0.30;;;14.60;99.90;;;;;;5093146;28;20389;-69
2021/10/26 09:16:48;;;;;;;0.40;0.20;;;14.50;99.90;;;;;;5093505;28;20427;-70
2021/10/26 09:19:18;;;;;;;0.40;0.20;;;14.50;99.90;;;;;;5091577;28;20447;-70
2021/10/26 09:21:54;;;;;;;0.40;0.20;;;14.60;99.90;;;;;;5093080;28;20392;-70
2021/10/26 09:24:19;;;;;;;0.40;0.20;;;14.60;99.90;;;;;;5093471;28;20378;-70
2021/10/26 09:26:58;;;;;;;0.40;0.20;;;14.60;99.90;;;;;;5093091;28;20435;-69
2021/10/26 09:29:35;;;;;;;0.40;0.40;;;14.50;99.90;;;;;;5093483;28;20390;-70
2021/10/26 09:32:09;;;;;;;0.85;0.85;;;14.50;99.90;;;;;;5093610;28;20915;-69
2021/10/26 09:34:40;;;;;;;0.40;0.30;;;14.40;99.90;;;;;;5093318;28;20390;-69
2021/10/26 09:37:06;;;;;;;0.40;0.20;;;14.40;99.90;;;;;;5093374;28;20386;-69
2021/10/26 09:39:32;;;;;;;0.40;0.20;;;14.50;99.90;;;;;;5092019;28;20473;-70
2021/10/26 09:42:09;;;;;;;0.40;0.20;;;14.40;99.90;;;;;;5092749;28;20370;-70
2021/10/26 09:44:39;;;;;;;0.40;0.30;;;14.60;99.90;;;;;;5093263;28;20853;-69
2021/10/26 09:47:23;;;;;;;0.40;0.20;;;14.70;99.90;;;;;;5093134;28;20437;-70
2021/10/26 09:49:59;;;;;;;0.40;0.40;;;14.80;99.90;;;;;;5092557;28;20453;-71
2021/10/26 09:52:36;;;;;;;0.50;0.50;;;14.70;99.90;;;;;;5091655;28;20402;-70
2021/10/26 09:55:21;;;;;;;0.40;0.30;;;14.70;99.90;;;;;;5092859;28;20384;-70
2021/10/26 09:57:56;;;;;;;0.40;0.20;;;15.00;99.90;;;;;;5092317;28;20861;-71
2021/10/26 10:00:27;;;;;;;0.50;0.40;;;14.90;99.90;;;;;;5091696;28;20386;-70
2021/10/26 10:03:00;;;;;;;0.40;0.20;;;15.00;99.90;;;;;;5092331;28;20378;-70
2021/10/26 10:05:29;;;;;;;0.40;0.20;;;15.10;99.90;;;;;;5092649;28;20382;-71
2021/10/26 10:07:54;;;;;;;0.40;0.30;;;15.10;99.90;;;;;;5092255;28;20378;-70
2021/10/26 10:10:20;;;;;;;0.40;0.20;;;15.20;99.90;;;;;;5092696;28;20374;-70
2021/10/26 10:13:01;;;;;;;0.40;0.20;;;15.20;99.90;;;;;;5092067;28;20422;-71
2021/10/26 10:15:27;;;;;;;0.40;0.20;;;15.10;99.90;;;;;;5092705;28;20429;-70
2021/10/26 10:17:55;;;;;;;0.40;0.20;;;15.20;99.90;;;;;;5091758;28;20855;-69
2021/10/26 10:20:20;;;;;;;0.40;0.20;;;15.20;99.90;;;;;;5092542;28;20378;-70
2021/10/26 10:22:47;;;;;;;0.40;0.30;;;15.10;99.90;;;;;;5091907;28;20431;-71
2021/10/26 10:25:14;;;;;;;0.40;0.20;;;15.20;99.90;;;;;;5092169;28;20423;-70
2021/10/26 10:27:43;;;;;;;0.40;0.20;;;15.20;99.90;;;;;;5091832;28;20438;-71
2021/10/26 10:30:09;;;;;;;0.40;0.20;;;15.10;99.90;;;;;;5092265;28;20874;-69
2021/10/26 10:32:36;;;;;;;0.40;0.20;;;15.10;99.90;;;;;;5092000;28;20877;-71
2021/10/26 10:35:06;;;;;;;0.40;0.20;;;15.10;99.90;;;;;;5090255;28;20496;-71
2021/10/26 10:37:32;;;;;;;0.40;0.20;;;15.00;99.90;;;;;;5091982;28;20390;-70
2021/10/26 10:39:59;;;;;;;0.40;0.20;;;15.20;99.90;;;;;;5091521;28;20402;-71
2021/10/26 10:42:26;;;;;;;0.40;0.20;;;15.20;99.90;;;;;;5091943;28;20377;-70
2021/10/26 10:44:57;;;;;;;0.40;0.20;;;15.20;99.90;;;;;;5091443;28;20458;-70
2021/10/26 10:47:42;;;;;;;0.40;0.20;;;15.10;99.90;;;;;;5091994;28;20414;-69
2021/10/26 10:50:20;;;;;;;0.40;0.20;;;15.20;99.90;;;;;;5092098;28;20477;-70
2021/10/26 10:53:08;;;;;;;0.40;0.20;;;15.30;99.90;;;;;;5090781;28;20406;-71
2021/10/26 10:55:37;;;;;;;0.40;0.20;;;15.50;99.90;;;;;;5091839;28;20431;-70
2021/10/26 10:58:22;;;;;;;0.40;0.20;;;15.60;99.90;;;;;;5091266;28;20431;-70
2021/10/26 11:00:49;;;;;;;0.40;0.20;;;15.60;99.90;;;;;;5091145;28;20382;-70
2021/10/26 11:03:32;;;;;;;0.40;0.35;;;15.60;99.90;;;;;;5091426;28;20375;-69
2021/10/26 11:06:01;;;;;;;0.40;0.20;;;15.80;99.90;;;;;;5090980;28;20406;-73
2021/10/26 11:08:43;;;;;;;0.40;0.30;;;15.70;99.90;;;;;;5091462;28;20855;-70
2021/10/26 11:11:09;;;;;;;0.40;0.20;;;15.80;99.90;;;;;;5091463;28;20389;-71
2021/10/26 11:13:35;;;;;;;0.40;0.30;;;15.90;99.90;;;;;;5091581;28;20472;-70
2021/10/26 11:16:08;;;;;;;0.40;0.20;;;15.80;99.90;;;;;;5090581;28;20904;-69
2021/10/26 11:18:45;;;;;;;0.40;0.20;;;15.80;99.90;;;;;;5091515;28;20378;-70
2021/10/26 11:21:26;;;;;;;0.40;0.30;;;16.00;99.90;;;;;;5091382;28;20435;-71
2021/10/26 11:23:57;;;;;;;0.40;0.20;;;15.90;99.90;;;;;;5090756;28;20449;-69
2021/10/26 11:26:43;;;;;;;0.40;0.20;;;15.90;99.90;;;;;;5091186;28;20409;-71
2021/10/26 11:29:27;;;;;;;0.40;0.20;;;16.10;99.90;;;;;;5091374;28;20404;-70
2021/10/26 11:31:53;;;;;;;0.40;0.28;;;16.10;99.90;;;;;;5090619;28;20393;-69
2021/10/26 11:34:22;;;;;;;0.40;0.20;;;15.80;99.90;;;;;;5091343;28;20367;-70
2021/10/26 11:37:02;;;;;;;0.40;0.30;;;16.10;99.90;;;;;;5090707;28;20393;-70
2021/10/26 11:39:28;;;;;;;0.40;0.20;;;16.10;99.50;;;;;;5091442;28;20781;-69
2021/10/26 11:41:58;;;;;;;0.40;0.20;;;16.00;99.20;;;;;;5090599;28;20378;-71
2021/10/26 11:44:24;;;;;;;0.40;0.20;;;16.00;99.90;;;;;;5091420;28;20390;-69
2021/10/26 11:46:51;;;;;;;0.40;0.20;;;15.90;99.50;;;;;;5090388;28;20418;-69
2021/10/26 11:49:22;;;;;;;0.40;0.20;;;16.00;99.10;;;;;;5091130;28;20781;-70
2021/10/26 11:51:58;;;;;;;0.40;0.20;;;16.60;98.00;;;;;;5088955;28;20418;-70
2021/10/26 11:54:42;;;;;;;0.40;0.30;;;17.20;96.50;;;;;;5091117;28;20386;-70
2021/10/26 11:57:10;;;;;;;0.40;0.20;;;17.30;95.60;;;;;;5090451;28;20389;-69
2021/10/26 11:59:42;;;;;;;0.60;0.60;;;17.00;96.40;;;;;;5089903;28;20409;-70
2021/10/26 12:02:16;;;;;;;0.40;0.20;;;17.10;96.70;;;;;;5090359;28;20412;-70
2021/10/26 12:04:58;;;;;;;0.40;0.20;;;17.40;95.80;;;;;;5091010;28;20431;-70
2021/10/26 12:07:26;;;;;;;0.40;0.20;;;17.30;95.60;;;;;;5090761;28;20397;-70
2021/10/26 12:09:56;;;;;;;0.40;0.30;;;17.20;95.70;;;;;;5090301;28;20488;-71
2021/10/26 12:12:30;;;;;;;0.40;0.20;;;17.00;96.10;;;;;;5090814;28;20719;-70
2021/10/26 12:15:07;;;;;;;0.40;0.20;;;16.70;96.60;;;;;;5091543;28;20377;-69
2021/10/26 12:17:41;;;;;;;0.40;0.20;;;16.90;96.00;;;;;;5094713;28;20383;-70
2021/10/26 12:20:21;;;;;;;0.40;0.20;;;16.90;95.60;;;;;;5094237;28;20374;-71
2021/10/26 12:22:50;;;;;;;0.40;0.25;;;16.80;95.20;;;;;;5094501;28;20388;-70
2021/10/26 12:25:21;;;;;;;0.40;0.20;;;16.70;95.80;;;;;;5094654;28;20378;-70
2021/10/26 12:27:51;;;;;;;0.40;0.20;;;16.80;95.60;;;;;;5094030;28;20410;-69
2021/10/26 12:30:23;;;;;;;0.40;0.20;;;16.50;96.00;;;;;;5094509;28;20382;-69
2021/10/26 12:32:52;;;;;;;0.40;0.22;;;16.70;95.90;;;;;;5094037;28;20838;-69
2021/10/26 12:35:18;;;;;;;0.40;0.28;;;16.60;96.20;;;;;;5093545;28;20809;-69
2021/10/26 12:37:45;;;;;;;0.40;0.20;;;16.80;95.70;;;;;;5094113;28;20386;-69
2021/10/26 12:40:16;;;;;;;0.40;0.20;;;16.90;96.40;;;;;;5093822;28;20370;-69
2021/10/26 12:42:45;;;;;;;0.40;0.20;;;17.10;95.30;;;;;;5094391;28;20750;-69
2021/10/26 12:45:13;;;;;;;0.40;0.40;;;17.80;94.50;;;;;;5092427;28;20746;-70
2021/10/26 12:48:05;;;;;;;0.40;0.30;;;18.60;93.20;;;;;;5093763;28;20925;-71
2021/10/26 12:50:47;;;;;;;0.40;0.20;;;18.30;93.20;;;;;;5089899;28;20397;-70
2021/10/26 12:53:18;;;;;;;0.40;0.20;;;18.30;92.30;;;;;;5093663;28;20408;-69
2021/10/26 12:55:52;;;;;;;0.40;0.20;;;17.70;93.30;;;;;;5094151;28;20447;-70
2021/10/26 12:58:37;;;;;;;0.40;0.20;;;17.40;94.40;;;;;;5092843;28;20739;-70